sensor_id;sensor_type;location;lat;lon;timestamp;P1;durP1;ratioP1;P2;durP2;ratioP2
57842;SDS011;43673;51.058;3.734;2022-10-31T00:01:01;13.85;;;5.00;;
57842;SDS011;43673;51.058;3.734;2022-10-31T00:03:34;7.95;;;5.22;;
57842;SDS011;43673;51.058;3.734;2022-10-31T00:05:59;11.25;;;5.35;;
57842;SDS011;43673;51.058;3.734;2022-10-31T00:08:26;7.03;;;4.30;;
57842;SDS011;43673;51.058;3.734;2022-10-31T00:10:52;6.70;;;5.07;;
57842;SDS011;43673;51.058;3.734;2022-10-31T00:13:18;10.15;;;5.32;;
57842;SDS011;43673;51.058;3.734;2022-10-31T00:15:43;16.30;;;6.05;;
57842;SDS011;43673;51.058;3.734;2022-10-31T00:18:09;11.00;;;5.80;;
57842;SDS011;43673;51.058;3.734;2022-10-31T00:20:36;9.73;;;6.53;;
57842;SDS011;43673;51.058;3.734;2022-10-31T00:23:02;11.18;;;5.80;;
57842;SDS011;43673;51.058;3.734;2022-10-31T00:25:32;12.85;;;5.88;;
57842;SDS011;43673;51.058;3.734;2022-10-31T00:28:00;9.45;;;5.90;;
57842;SDS011;43673;51.058;3.734;2022-10-31T00:30:26;10.20;;;5.30;;
57842;SDS011;43673;51.058;3.734;2022-10-31T00:32:52;13.65;;;6.43;;
57842;SDS011;43673;51.058;3.734;2022-10-31T00:35:18;12.98;;;6.45;;
57842;SDS011;43673;51.058;3.734;2022-10-31T00:37:44;15.73;;;6.28;;
57842;SDS011;43673;51.058;3.734;2022-10-31T00:43:04;13.13;;;6.47;;
57842;SDS011;43673;51.058;3.734;2022-10-31T01:17:06;12.57;;;6.32;;
57842;SDS011;43673;51.058;3.734;2022-10-31T01:30:08;12.65;;;6.22;;
57842;SDS011;43673;51.058;3.734;2022-10-31T01:32:59;13.75;;;7.07;;
57842;SDS011;43673;51.058;3.734;2022-10-31T01:35:25;9.73;;;6.60;;
57842;SDS011;43673;51.058;3.734;2022-10-31T01:37:51;9.88;;;6.03;;
57842;SDS011;43673;51.058;3.734;2022-10-31T01:40:18;11.23;;;6.53;;
57842;SDS011;43673;51.058;3.734;2022-10-31T01:43:04;9.35;;;6.30;;
57842;SDS011;43673;51.058;3.734;2022-10-31T01:46:13;11.00;;;5.93;;
57842;SDS011;43673;51.058;3.734;2022-10-31T01:51:20;10.07;;;7.68;;
57842;SDS011;43673;51.058;3.734;2022-10-31T01:54:10;12.00;;;7.10;;
57842;SDS011;43673;51.058;3.734;2022-10-31T01:56:46;15.20;;;6.50;;
57842;SDS011;43673;51.058;3.734;2022-10-31T01:59:19;11.00;;;6.43;;
57842;SDS011;43673;51.058;3.734;2022-10-31T02:04:32;13.60;;;6.88;;
57842;SDS011;43673;51.058;3.734;2022-10-31T02:33:30;16.15;;;8.60;;
57842;SDS011;43673;51.058;3.734;2022-10-31T07:33:39;23.45;;;14.00;;
57842;SDS011;43673;51.058;3.734;2022-10-31T07:51:03;21.40;;;14.35;;
57842;SDS011;43673;51.058;3.734;2022-10-31T07:53:45;21.00;;;13.55;;
57842;SDS011;43673;51.058;3.734;2022-10-31T08:04:56;21.17;;;15.18;;
57842;SDS011;43673;51.058;3.734;2022-10-31T08:10:01;26.73;;;15.88;;
57842;SDS011;43673;51.058;3.734;2022-10-31T08:28:43;22.95;;;15.18;;
57842;SDS011;43673;51.058;3.734;2022-10-31T08:33:54;22.98;;;13.45;;
57842;SDS011;43673;51.058;3.734;2022-10-31T08:36:20;21.65;;;13.63;;
57842;SDS011;43673;51.058;3.734;2022-10-31T08:38:46;21.90;;;14.65;;
57842;SDS011;43673;51.058;3.734;2022-10-31T08:41:14;30.92;;;15.15;;
57842;SDS011;43673;51.058;3.734;2022-10-31T08:43:41;25.13;;;14.13;;
57842;SDS011;43673;51.058;3.734;2022-10-31T08:46:07;24.60;;;13.52;;
57842;SDS011;43673;51.058;3.734;2022-10-31T08:48:33;20.60;;;14.65;;
57842;SDS011;43673;51.058;3.734;2022-10-31T08:50:59;25.92;;;14.55;;
57842;SDS011;43673;51.058;3.734;2022-10-31T08:53:24;21.45;;;13.23;;
57842;SDS011;43673;51.058;3.734;2022-10-31T08:55:53;21.77;;;13.20;;
57842;SDS011;43673;51.058;3.734;2022-10-31T08:58:20;18.48;;;13.35;;
57842;SDS011;43673;51.058;3.734;2022-10-31T09:00:47;20.95;;;14.15;;
57842;SDS011;43673;51.058;3.734;2022-10-31T09:03:15;17.15;;;12.98;;
57842;SDS011;43673;51.058;3.734;2022-10-31T09:05:45;20.73;;;13.50;;
57842;SDS011;43673;51.058;3.734;2022-10-31T09:08:16;29.45;;;14.25;;
57842;SDS011;43673;51.058;3.734;2022-10-31T09:10:42;19.90;;;14.15;;
57842;SDS011;43673;51.058;3.734;2022-10-31T09:13:10;23.48;;;13.93;;
57842;SDS011;43673;51.058;3.734;2022-10-31T09:15:39;19.83;;;12.20;;
57842;SDS011;43673;51.058;3.734;2022-10-31T09:21:30;18.58;;;13.82;;
57842;SDS011;43673;51.058;3.734;2022-10-31T09:23:56;19.58;;;13.45;;
57842;SDS011;43673;51.058;3.734;2022-10-31T09:26:22;21.15;;;13.95;;
57842;SDS011;43673;51.058;3.734;2022-10-31T09:28:55;23.85;;;13.82;;
57842;SDS011;43673;51.058;3.734;2022-10-31T09:31:23;20.77;;;14.88;;
57842;SDS011;43673;51.058;3.734;2022-10-31T09:37:00;15.40;;;12.05;;
57842;SDS011;43673;51.058;3.734;2022-10-31T09:39:25;19.50;;;13.65;;
57842;SDS011;43673;51.058;3.734;2022-10-31T09:42:02;27.08;;;15.27;;
57842;SDS011;43673;51.058;3.734;2022-10-31T09:47:57;20.85;;;13.80;;
57842;SDS011;43673;51.058;3.734;2022-10-31T09:54:04;20.27;;;12.70;;
57842;SDS011;43673;51.058;3.734;2022-10-31T09:56:47;21.27;;;13.25;;
57842;SDS011;43673;51.058;3.734;2022-10-31T09:59:23;24.70;;;13.70;;
57842;SDS011;43673;51.058;3.734;2022-10-31T10:02:17;20.63;;;13.55;;
57842;SDS011;43673;51.058;3.734;2022-10-31T10:16:39;20.30;;;14.82;;
57842;SDS011;43673;51.058;3.734;2022-10-31T10:22:19;33.35;;;15.10;;
57842;SDS011;43673;51.058;3.734;2022-10-31T10:36:32;22.17;;;15.68;;
57842;SDS011;43673;51.058;3.734;2022-10-31T10:39:37;30.13;;;18.35;;
57842;SDS011;43673;51.058;3.734;2022-10-31T10:42:10;23.63;;;14.48;;
57842;SDS011;43673;51.058;3.734;2022-10-31T10:44:56;22.35;;;13.80;;
57842;SDS011;43673;51.058;3.734;2022-10-31T10:47:44;21.45;;;14.57;;
57842;SDS011;43673;51.058;3.734;2022-10-31T10:50:22;23.70;;;13.00;;
57842;SDS011;43673;51.058;3.734;2022-10-31T10:53:02;24.60;;;12.20;;
57842;SDS011;43673;51.058;3.734;2022-10-31T10:58:39;23.30;;;13.15;;
57842;SDS011;43673;51.058;3.734;2022-10-31T11:01:14;22.55;;;13.02;;
57842;SDS011;43673;51.058;3.734;2022-10-31T11:03:40;23.27;;;13.98;;
57842;SDS011;43673;51.058;3.734;2022-10-31T11:06:17;22.88;;;13.15;;
57842;SDS011;43673;51.058;3.734;2022-10-31T11:08:47;22.92;;;14.00;;
57842;SDS011;43673;51.058;3.734;2022-10-31T11:11:24;22.83;;;14.45;;
57842;SDS011;43673;51.058;3.734;2022-10-31T11:13:54;23.08;;;14.23;;
57842;SDS011;43673;51.058;3.734;2022-10-31T11:16:33;17.67;;;12.40;;
57842;SDS011;43673;51.058;3.734;2022-10-31T11:19:17;20.25;;;11.98;;
57842;SDS011;43673;51.058;3.734;2022-10-31T11:21:45;22.60;;;13.82;;
57842;SDS011;43673;51.058;3.734;2022-10-31T11:24:17;22.23;;;14.30;;
57842;SDS011;43673;51.058;3.734;2022-10-31T11:26:51;25.58;;;14.77;;
57842;SDS011;43673;51.058;3.734;2022-10-31T11:29:44;19.95;;;13.63;;
57842;SDS011;43673;51.058;3.734;2022-10-31T11:32:18;22.30;;;13.93;;
57842;SDS011;43673;51.058;3.734;2022-10-31T11:34:53;22.37;;;13.80;;
57842;SDS011;43673;51.058;3.734;2022-10-31T11:37:28;26.85;;;14.45;;
57842;SDS011;43673;51.058;3.734;2022-10-31T11:39:58;26.35;;;14.05;;
57842;SDS011;43673;51.058;3.734;2022-10-31T11:42:26;19.60;;;12.88;;
57842;SDS011;43673;51.058;3.734;2022-10-31T11:44:54;23.30;;;14.25;;
57842;SDS011;43673;51.058;3.734;2022-10-31T11:47:28;18.40;;;13.57;;
57842;SDS011;43673;51.058;3.734;2022-10-31T11:49:54;25.10;;;13.82;;
57842;SDS011;43673;51.058;3.734;2022-10-31T11:52:24;21.67;;;14.73;;
57842;SDS011;43673;51.058;3.734;2022-10-31T11:54:58;21.95;;;13.32;;
57842;SDS011;43673;51.058;3.734;2022-10-31T11:57:48;20.40;;;13.85;;
57842;SDS011;43673;51.058;3.734;2022-10-31T12:03:50;22.40;;;15.25;;
57842;SDS011;43673;51.058;3.734;2022-10-31T12:08:39;21.85;;;15.07;;
57842;SDS011;43673;51.058;3.734;2022-10-31T12:22:20;19.35;;;12.88;;
57842;SDS011;43673;51.058;3.734;2022-10-31T12:25:10;21.75;;;14.32;;
57842;SDS011;43673;51.058;3.734;2022-10-31T12:27:59;23.48;;;13.07;;
57842;SDS011;43673;51.058;3.734;2022-10-31T12:31:19;20.27;;;14.63;;
57842;SDS011;43673;51.058;3.734;2022-10-31T12:36:30;20.60;;;14.57;;
57842;SDS011;43673;51.058;3.734;2022-10-31T12:44:39;21.00;;;15.00;;
57842;SDS011;43673;51.058;3.734;2022-10-31T12:47:16;24.50;;;14.90;;
57842;SDS011;43673;51.058;3.734;2022-10-31T12:58:24;21.08;;;14.68;;
57842;SDS011;43673;51.058;3.734;2022-10-31T13:01:15;22.92;;;14.15;;
57842;SDS011;43673;51.058;3.734;2022-10-31T13:03:49;21.10;;;14.15;;
57842;SDS011;43673;51.058;3.734;2022-10-31T13:06:22;22.98;;;14.75;;
57842;SDS011;43673;51.058;3.734;2022-10-31T13:08:55;22.02;;;13.98;;
57842;SDS011;43673;51.058;3.734;2022-10-31T13:11:27;24.75;;;14.18;;
57842;SDS011;43673;51.058;3.734;2022-10-31T13:16:45;23.33;;;14.48;;
57842;SDS011;43673;51.058;3.734;2022-10-31T13:19:17;20.77;;;14.88;;
57842;SDS011;43673;51.058;3.734;2022-10-31T13:21:57;24.83;;;15.70;;
57842;SDS011;43673;51.058;3.734;2022-10-31T13:27:30;25.20;;;15.20;;
57842;SDS011;43673;51.058;3.734;2022-10-31T13:30:10;25.38;;;15.90;;
57842;SDS011;43673;51.058;3.734;2022-10-31T13:35:42;25.02;;;15.73;;
57842;SDS011;43673;51.058;3.734;2022-10-31T13:38:24;29.23;;;16.70;;
57842;SDS011;43673;51.058;3.734;2022-10-31T13:44:40;23.02;;;15.57;;
57842;SDS011;43673;51.058;3.734;2022-10-31T13:47:02;26.55;;;15.85;;
57842;SDS011;43673;51.058;3.734;2022-10-31T13:54:35;30.65;;;16.27;;
57842;SDS011;43673;51.058;3.734;2022-10-31T13:59:55;27.90;;;14.52;;
57842;SDS011;43673;51.058;3.734;2022-10-31T14:02:34;30.20;;;16.37;;
57842;SDS011;43673;51.058;3.734;2022-10-31T14:05:06;29.17;;;16.08;;
57842;SDS011;43673;51.058;3.734;2022-10-31T14:07:43;26.17;;;16.15;;
57842;SDS011;43673;51.058;3.734;2022-10-31T14:15:58;30.05;;;16.88;;
57842;SDS011;43673;51.058;3.734;2022-10-31T14:23:49;25.60;;;17.48;;
57842;SDS011;43673;51.058;3.734;2022-10-31T14:29:32;28.55;;;18.27;;
57842;SDS011;43673;51.058;3.734;2022-10-31T14:51:10;27.08;;;18.50;;
57842;SDS011;43673;51.058;3.734;2022-10-31T14:53:49;34.92;;;19.80;;
57842;SDS011;43673;51.058;3.734;2022-10-31T14:56:19;32.30;;;18.33;;
57842;SDS011;43673;51.058;3.734;2022-10-31T14:58:52;36.33;;;18.88;;
57842;SDS011;43673;51.058;3.734;2022-10-31T15:01:27;26.90;;;18.15;;
57842;SDS011;43673;51.058;3.734;2022-10-31T15:03:55;32.97;;;18.95;;
57842;SDS011;43673;51.058;3.734;2022-10-31T15:06:37;34.60;;;20.00;;
57842;SDS011;43673;51.058;3.734;2022-10-31T15:09:23;34.47;;;17.90;;
57842;SDS011;43673;51.058;3.734;2022-10-31T15:11:50;27.90;;;17.27;;
57842;SDS011;43673;51.058;3.734;2022-10-31T15:14:22;35.83;;;20.27;;
57842;SDS011;43673;51.058;3.734;2022-10-31T15:16:53;31.13;;;17.55;;
57842;SDS011;43673;51.058;3.734;2022-10-31T15:19:27;29.77;;;17.35;;
57842;SDS011;43673;51.058;3.734;2022-10-31T15:21:55;32.35;;;19.02;;
57842;SDS011;43673;51.058;3.734;2022-10-31T15:24:23;32.08;;;18.67;;
57842;SDS011;43673;51.058;3.734;2022-10-31T15:26:52;31.75;;;18.90;;
57842;SDS011;43673;51.058;3.734;2022-10-31T15:29:20;27.05;;;18.13;;
57842;SDS011;43673;51.058;3.734;2022-10-31T15:34:22;33.10;;;20.60;;
57842;SDS011;43673;51.058;3.734;2022-10-31T15:36:58;33.50;;;20.40;;
57842;SDS011;43673;51.058;3.734;2022-10-31T15:39:24;42.58;;;26.30;;
57842;SDS011;43673;51.058;3.734;2022-10-31T15:41:54;46.13;;;28.17;;
57842;SDS011;43673;51.058;3.734;2022-10-31T15:44:35;57.05;;;29.67;;
57842;SDS011;43673;51.058;3.734;2022-10-31T15:47:05;44.28;;;27.65;;
57842;SDS011;43673;51.058;3.734;2022-10-31T15:49:40;44.08;;;27.05;;
57842;SDS011;43673;51.058;3.734;2022-10-31T15:52:14;39.33;;;24.92;;
57842;SDS011;43673;51.058;3.734;2022-10-31T15:54:51;46.58;;;24.60;;
57842;SDS011;43673;51.058;3.734;2022-10-31T15:57:21;37.40;;;24.73;;
57842;SDS011;43673;51.058;3.734;2022-10-31T15:59:48;37.22;;;24.95;;
57842;SDS011;43673;51.058;3.734;2022-10-31T16:02:19;32.28;;;22.27;;
57842;SDS011;43673;51.058;3.734;2022-10-31T16:04:49;38.63;;;23.50;;
57842;SDS011;43673;51.058;3.734;2022-10-31T16:07:20;33.22;;;21.38;;
57842;SDS011;43673;51.058;3.734;2022-10-31T16:09:53;35.97;;;20.20;;
57842;SDS011;43673;51.058;3.734;2022-10-31T16:12:29;36.00;;;21.50;;
57842;SDS011;43673;51.058;3.734;2022-10-31T16:15:00;33.28;;;17.40;;
57842;SDS011;43673;51.058;3.734;2022-10-31T16:17:28;33.75;;;17.00;;
57842;SDS011;43673;51.058;3.734;2022-10-31T16:19:55;26.88;;;15.98;;
57842;SDS011;43673;51.058;3.734;2022-10-31T16:22:35;27.15;;;16.83;;
57842;SDS011;43673;51.058;3.734;2022-10-31T16:25:12;33.60;;;18.60;;
57842;SDS011;43673;51.058;3.734;2022-10-31T16:27:40;29.00;;;17.02;;
57842;SDS011;43673;51.058;3.734;2022-10-31T16:33:26;30.17;;;16.73;;
57842;SDS011;43673;51.058;3.734;2022-10-31T16:38:57;36.33;;;17.95;;
57842;SDS011;43673;51.058;3.734;2022-10-31T16:41:23;34.35;;;17.42;;
57842;SDS011;43673;51.058;3.734;2022-10-31T16:43:50;26.17;;;16.38;;
57842;SDS011;43673;51.058;3.734;2022-10-31T16:46:18;32.10;;;17.90;;
57842;SDS011;43673;51.058;3.734;2022-10-31T16:48:49;31.30;;;17.33;;
57842;SDS011;43673;51.058;3.734;2022-10-31T16:51:15;32.85;;;19.67;;
57842;SDS011;43673;51.058;3.734;2022-10-31T16:53:41;32.63;;;19.20;;
57842;SDS011;43673;51.058;3.734;2022-10-31T16:56:15;28.10;;;17.67;;
57842;SDS011;43673;51.058;3.734;2022-10-31T16:58:43;28.45;;;17.20;;
57842;SDS011;43673;51.058;3.734;2022-10-31T17:01:09;31.58;;;17.73;;
57842;SDS011;43673;51.058;3.734;2022-10-31T17:03:36;29.75;;;16.77;;
57842;SDS011;43673;51.058;3.734;2022-10-31T17:06:02;33.47;;;18.45;;
57842;SDS011;43673;51.058;3.734;2022-10-31T17:08:28;28.83;;;16.65;;
57842;SDS011;43673;51.058;3.734;2022-10-31T17:10:55;27.13;;;17.08;;
57842;SDS011;43673;51.058;3.734;2022-10-31T17:13:23;30.05;;;16.67;;
57842;SDS011;43673;51.058;3.734;2022-10-31T17:15:53;31.67;;;17.27;;
57842;SDS011;43673;51.058;3.734;2022-10-31T17:18:21;35.45;;;18.70;;
57842;SDS011;43673;51.058;3.734;2022-10-31T17:20:46;30.05;;;17.73;;
57842;SDS011;43673;51.058;3.734;2022-10-31T17:23:13;31.20;;;16.60;;
57842;SDS011;43673;51.058;3.734;2022-10-31T17:25:40;28.83;;;16.90;;
57842;SDS011;43673;51.058;3.734;2022-10-31T17:28:07;32.50;;;18.45;;
57842;SDS011;43673;51.058;3.734;2022-10-31T17:30:37;33.28;;;17.52;;
57842;SDS011;43673;51.058;3.734;2022-10-31T17:33:04;30.83;;;17.58;;
57842;SDS011;43673;51.058;3.734;2022-10-31T17:35:29;30.10;;;16.70;;
57842;SDS011;43673;51.058;3.734;2022-10-31T17:37:55;26.90;;;17.95;;
57842;SDS011;43673;51.058;3.734;2022-10-31T17:40:21;35.90;;;18.85;;
57842;SDS011;43673;51.058;3.734;2022-10-31T17:42:51;31.73;;;17.30;;
57842;SDS011;43673;51.058;3.734;2022-10-31T17:45:19;36.05;;;18.45;;
57842;SDS011;43673;51.058;3.734;2022-10-31T17:47:49;31.80;;;18.42;;
57842;SDS011;43673;51.058;3.734;2022-10-31T17:50:16;32.10;;;19.02;;
57842;SDS011;43673;51.058;3.734;2022-10-31T17:52:44;27.25;;;17.27;;
57842;SDS011;43673;51.058;3.734;2022-10-31T17:55:11;26.98;;;17.52;;
57842;SDS011;43673;51.058;3.734;2022-10-31T17:57:36;30.77;;;17.50;;
57842;SDS011;43673;51.058;3.734;2022-10-31T18:00:03;28.77;;;17.00;;
57842;SDS011;43673;51.058;3.734;2022-10-31T18:02:31;25.60;;;16.52;;
57842;SDS011;43673;51.058;3.734;2022-10-31T18:04:57;27.70;;;15.40;;
57842;SDS011;43673;51.058;3.734;2022-10-31T18:07:26;27.23;;;15.47;;
57842;SDS011;43673;51.058;3.734;2022-10-31T18:09:52;29.05;;;13.77;;
57842;SDS011;43673;51.058;3.734;2022-10-31T18:12:18;21.65;;;13.52;;
57842;SDS011;43673;51.058;3.734;2022-10-31T18:14:44;23.85;;;11.82;;
57842;SDS011;43673;51.058;3.734;2022-10-31T18:17:09;20.15;;;11.20;;
57842;SDS011;43673;51.058;3.734;2022-10-31T18:19:35;18.60;;;11.93;;
57842;SDS011;43673;51.058;3.734;2022-10-31T18:22:01;19.35;;;10.95;;
57842;SDS011;43673;51.058;3.734;2022-10-31T18:24:26;24.23;;;10.93;;
57842;SDS011;43673;51.058;3.734;2022-10-31T18:26:52;17.77;;;11.32;;
57842;SDS011;43673;51.058;3.734;2022-10-31T18:29:18;21.42;;;9.25;;
57842;SDS011;43673;51.058;3.734;2022-10-31T18:31:44;22.63;;;10.20;;
57842;SDS011;43673;51.058;3.734;2022-10-31T18:34:13;20.60;;;9.23;;
57842;SDS011;43673;51.058;3.734;2022-10-31T18:36:40;19.38;;;10.75;;
57842;SDS011;43673;51.058;3.734;2022-10-31T18:39:06;19.23;;;9.63;;
57842;SDS011;43673;51.058;3.734;2022-10-31T18:41:32;20.05;;;10.98;;
57842;SDS011;43673;51.058;3.734;2022-10-31T18:43:58;20.95;;;10.50;;
57842;SDS011;43673;51.058;3.734;2022-10-31T18:46:24;17.13;;;10.25;;
57842;SDS011;43673;51.058;3.734;2022-10-31T18:48:51;18.08;;;9.50;;
57842;SDS011;43673;51.058;3.734;2022-10-31T18:51:17;16.73;;;9.38;;
57842;SDS011;43673;51.058;3.734;2022-10-31T18:53:55;15.40;;;9.45;;
57842;SDS011;43673;51.058;3.734;2022-10-31T18:56:22;26.25;;;9.68;;
57842;SDS011;43673;51.058;3.734;2022-10-31T18:58:49;14.75;;;9.15;;
57842;SDS011;43673;51.058;3.734;2022-10-31T19:01:15;18.65;;;9.48;;
57842;SDS011;43673;51.058;3.734;2022-10-31T19:03:42;16.13;;;9.10;;
57842;SDS011;43673;51.058;3.734;2022-10-31T19:06:08;15.10;;;9.55;;
57842;SDS011;43673;51.058;3.734;2022-10-31T19:08:37;22.38;;;9.25;;
57842;SDS011;43673;51.058;3.734;2022-10-31T19:11:07;20.90;;;9.73;;
57842;SDS011;43673;51.058;3.734;2022-10-31T19:13:34;16.40;;;10.10;;
57842;SDS011;43673;51.058;3.734;2022-10-31T19:16:09;19.77;;;9.05;;
57842;SDS011;43673;51.058;3.734;2022-10-31T19:18:37;19.35;;;9.10;;
57842;SDS011;43673;51.058;3.734;2022-10-31T19:21:21;21.40;;;9.75;;
57842;SDS011;43673;51.058;3.734;2022-10-31T19:23:49;16.05;;;8.43;;
57842;SDS011;43673;51.058;3.734;2022-10-31T19:26:17;22.85;;;10.90;;
57842;SDS011;43673;51.058;3.734;2022-10-31T19:28:43;17.13;;;8.55;;
57842;SDS011;43673;51.058;3.734;2022-10-31T19:31:08;27.58;;;10.18;;
57842;SDS011;43673;51.058;3.734;2022-10-31T19:33:34;22.58;;;8.85;;
57842;SDS011;43673;51.058;3.734;2022-10-31T19:36:08;19.33;;;8.95;;
57842;SDS011;43673;51.058;3.734;2022-10-31T19:38:35;15.75;;;10.00;;
57842;SDS011;43673;51.058;3.734;2022-10-31T19:41:05;17.08;;;8.40;;
57842;SDS011;43673;51.058;3.734;2022-10-31T19:43:35;16.15;;;8.20;;
57842;SDS011;43673;51.058;3.734;2022-10-31T19:46:02;19.10;;;9.25;;
57842;SDS011;43673;51.058;3.734;2022-10-31T19:48:29;16.52;;;8.20;;
57842;SDS011;43673;51.058;3.734;2022-10-31T19:53:47;18.65;;;8.57;;
57842;SDS011;43673;51.058;3.734;2022-10-31T19:56:14;16.73;;;8.45;;
57842;SDS011;43673;51.058;3.734;2022-10-31T19:58:41;18.58;;;9.93;;
57842;SDS011;43673;51.058;3.734;2022-10-31T20:01:08;18.88;;;9.15;;
57842;SDS011;43673;51.058;3.734;2022-10-31T20:03:41;18.73;;;8.30;;
57842;SDS011;43673;51.058;3.734;2022-10-31T20:09:01;18.08;;;8.95;;
57842;SDS011;43673;51.058;3.734;2022-10-31T20:11:29;13.93;;;7.40;;
57842;SDS011;43673;51.058;3.734;2022-10-31T20:13:55;13.07;;;8.10;;
57842;SDS011;43673;51.058;3.734;2022-10-31T20:16:22;17.42;;;8.50;;
57842;SDS011;43673;51.058;3.734;2022-10-31T20:18:48;18.70;;;8.52;;
57842;SDS011;43673;51.058;3.734;2022-10-31T20:21:15;16.08;;;8.20;;
57842;SDS011;43673;51.058;3.734;2022-10-31T20:23:45;13.45;;;7.63;;
57842;SDS011;43673;51.058;3.734;2022-10-31T20:26:13;22.63;;;7.90;;
57842;SDS011;43673;51.058;3.734;2022-10-31T20:28:40;24.35;;;9.57;;
57842;SDS011;43673;51.058;3.734;2022-10-31T20:31:10;20.45;;;9.13;;
57842;SDS011;43673;51.058;3.734;2022-10-31T20:33:40;18.92;;;8.18;;
57842;SDS011;43673;51.058;3.734;2022-10-31T20:36:06;15.88;;;8.15;;
57842;SDS011;43673;51.058;3.734;2022-10-31T20:38:36;17.85;;;9.30;;
57842;SDS011;43673;51.058;3.734;2022-10-31T20:41:04;21.27;;;8.85;;
57842;SDS011;43673;51.058;3.734;2022-10-31T20:43:31;17.58;;;9.15;;
57842;SDS011;43673;51.058;3.734;2022-10-31T20:46:01;17.80;;;9.50;;
57842;SDS011;43673;51.058;3.734;2022-10-31T20:48:29;21.13;;;8.70;;
57842;SDS011;43673;51.058;3.734;2022-10-31T20:50:58;14.93;;;8.93;;
57842;SDS011;43673;51.058;3.734;2022-10-31T20:53:25;22.00;;;8.90;;
57842;SDS011;43673;51.058;3.734;2022-10-31T20:56:01;17.95;;;8.85;;
57842;SDS011;43673;51.058;3.734;2022-10-31T20:58:32;18.17;;;8.82;;
57842;SDS011;43673;51.058;3.734;2022-10-31T21:00:58;17.77;;;8.82;;
57842;SDS011;43673;51.058;3.734;2022-10-31T21:03:24;15.00;;;8.13;;
57842;SDS011;43673;51.058;3.734;2022-10-31T21:05:54;21.27;;;8.73;;
57842;SDS011;43673;51.058;3.734;2022-10-31T21:08:23;15.80;;;8.85;;
57842;SDS011;43673;51.058;3.734;2022-10-31T21:10:49;16.80;;;8.40;;
57842;SDS011;43673;51.058;3.734;2022-10-31T21:13:16;17.63;;;8.02;;
57842;SDS011;43673;51.058;3.734;2022-10-31T21:15:41;15.63;;;8.23;;
57842;SDS011;43673;51.058;3.734;2022-10-31T21:18:08;15.07;;;8.65;;
57842;SDS011;43673;51.058;3.734;2022-10-31T21:20:33;18.80;;;8.32;;
57842;SDS011;43673;51.058;3.734;2022-10-31T21:23:02;17.40;;;7.55;;
57842;SDS011;43673;51.058;3.734;2022-10-31T21:25:28;16.15;;;8.68;;
57842;SDS011;43673;51.058;3.734;2022-10-31T21:27:54;21.45;;;7.85;;
57842;SDS011;43673;51.058;3.734;2022-10-31T21:30:20;18.40;;;8.07;;
57842;SDS011;43673;51.058;3.734;2022-10-31T21:32:45;17.50;;;8.07;;
57842;SDS011;43673;51.058;3.734;2022-10-31T21:35:11;17.08;;;7.90;;
57842;SDS011;43673;51.058;3.734;2022-10-31T21:37:37;14.38;;;7.28;;
57842;SDS011;43673;51.058;3.734;2022-10-31T21:40:02;14.32;;;8.18;;
57842;SDS011;43673;51.058;3.734;2022-10-31T21:42:28;28.67;;;10.48;;
57842;SDS011;43673;51.058;3.734;2022-10-31T21:44:54;14.30;;;7.50;;
57842;SDS011;43673;51.058;3.734;2022-10-31T21:47:20;18.45;;;7.68;;
57842;SDS011;43673;51.058;3.734;2022-10-31T21:49:45;15.57;;;7.97;;
57842;SDS011;43673;51.058;3.734;2022-10-31T21:52:11;12.23;;;7.38;;
57842;SDS011;43673;51.058;3.734;2022-10-31T21:54:37;22.63;;;8.40;;
57842;SDS011;43673;51.058;3.734;2022-10-31T21:57:02;13.15;;;7.95;;
57842;SDS011;43673;51.058;3.734;2022-10-31T21:59:28;12.70;;;6.88;;
57842;SDS011;43673;51.058;3.734;2022-10-31T22:01:54;13.80;;;8.10;;
57842;SDS011;43673;51.058;3.734;2022-10-31T22:04:22;15.32;;;8.93;;
57842;SDS011;43673;51.058;3.734;2022-10-31T22:06:55;16.95;;;8.88;;
57842;SDS011;43673;51.058;3.734;2022-10-31T22:09:20;17.17;;;8.05;;
57842;SDS011;43673;51.058;3.734;2022-10-31T22:11:47;13.85;;;8.48;;
57842;SDS011;43673;51.058;3.734;2022-10-31T22:14:13;23.23;;;8.45;;
57842;SDS011;43673;51.058;3.734;2022-10-31T22:16:40;19.20;;;7.80;;
57842;SDS011;43673;51.058;3.734;2022-10-31T22:19:06;14.05;;;7.65;;
57842;SDS011;43673;51.058;3.734;2022-10-31T22:21:35;14.20;;;7.53;;
57842;SDS011;43673;51.058;3.734;2022-10-31T22:24:06;16.42;;;8.23;;
57842;SDS011;43673;51.058;3.734;2022-10-31T22:26:33;13.68;;;7.63;;
57842;SDS011;43673;51.058;3.734;2022-10-31T22:29:00;14.50;;;7.72;;
57842;SDS011;43673;51.058;3.734;2022-10-31T22:31:28;17.58;;;8.77;;
57842;SDS011;43673;51.058;3.734;2022-10-31T22:33:55;19.65;;;8.05;;
57842;SDS011;43673;51.058;3.734;2022-10-31T22:36:23;15.70;;;7.50;;
57842;SDS011;43673;51.058;3.734;2022-10-31T22:38:50;18.60;;;8.32;;
57842;SDS011;43673;51.058;3.734;2022-10-31T22:41:20;17.23;;;8.43;;
57842;SDS011;43673;51.058;3.734;2022-10-31T22:43:47;14.88;;;6.82;;
57842;SDS011;43673;51.058;3.734;2022-10-31T22:46:26;17.65;;;7.63;;
57842;SDS011;43673;51.058;3.734;2022-10-31T22:48:54;13.38;;;7.15;;
57842;SDS011;43673;51.058;3.734;2022-10-31T22:51:23;16.48;;;8.00;;
57842;SDS011;43673;51.058;3.734;2022-10-31T22:53:56;14.23;;;7.50;;
57842;SDS011;43673;51.058;3.734;2022-10-31T22:56:23;11.05;;;7.40;;
57842;SDS011;43673;51.058;3.734;2022-10-31T22:58:50;10.82;;;7.43;;
57842;SDS011;43673;51.058;3.734;2022-10-31T23:01:20;14.15;;;6.93;;
57842;SDS011;43673;51.058;3.734;2022-10-31T23:03:49;14.57;;;6.88;;
57842;SDS011;43673;51.058;3.734;2022-10-31T23:06:18;12.90;;;7.25;;
57842;SDS011;43673;51.058;3.734;2022-10-31T23:08:48;10.50;;;6.50;;
57842;SDS011;43673;51.058;3.734;2022-10-31T23:11:15;18.05;;;8.07;;
57842;SDS011;43673;51.058;3.734;2022-10-31T23:13:54;9.77;;;6.45;;
57842;SDS011;43673;51.058;3.734;2022-10-31T23:19:05;11.57;;;7.40;;
57842;SDS011;43673;51.058;3.734;2022-10-31T23:21:35;11.77;;;7.22;;
57842;SDS011;43673;51.058;3.734;2022-10-31T23:24:21;14.27;;;6.97;;
57842;SDS011;43673;51.058;3.734;2022-10-31T23:26:48;15.25;;;7.10;;
57842;SDS011;43673;51.058;3.734;2022-10-31T23:29:37;14.60;;;6.85;;
57842;SDS011;43673;51.058;3.734;2022-10-31T23:32:13;13.93;;;8.48;;
57842;SDS011;43673;51.058;3.734;2022-10-31T23:35:06;14.30;;;7.50;;
57842;SDS011;43673;51.058;3.734;2022-10-31T23:37:34;13.32;;;6.78;;
57842;SDS011;43673;51.058;3.734;2022-10-31T23:40:02;17.92;;;7.72;;
57842;SDS011;43673;51.058;3.734;2022-10-31T23:42:28;15.50;;;8.48;;
57842;SDS011;43673;51.058;3.734;2022-10-31T23:44:54;12.23;;;7.72;;
57842;SDS011;43673;51.058;3.734;2022-10-31T23:47:21;14.68;;;7.60;;
57842;SDS011;43673;51.058;3.734;2022-10-31T23:49:47;15.73;;;7.07;;
57842;SDS011;43673;51.058;3.734;2022-10-31T23:52:13;10.77;;;6.90;;
57842;SDS011;43673;51.058;3.734;2022-10-31T23:54:39;16.55;;;7.20;;
57842;SDS011;43673;51.058;3.734;2022-10-31T23:57:05;13.73;;;6.43;;
57842;SDS011;43673;51.058;3.734;2022-10-31T23:59:50;13.88;;;7.60;;
